sensor_id;sensor_type;location;lat;lon;timestamp;P1;durP1;ratioP1;P2;durP2;ratioP2
4353;SDS011;11018;51.258;6.806;2023-04-06T00:01:19;18.00;;;9.20;;
4353;SDS011;11018;51.258;6.806;2023-04-06T00:03:45;16.33;;;9.73;;
4353;SDS011;11018;51.258;6.806;2023-04-06T00:06:11;22.75;;;10.57;;
4353;SDS011;11018;51.258;6.806;2023-04-06T00:08:36;14.52;;;9.50;;
4353;SDS011;11018;51.258;6.806;2023-04-06T00:11:02;17.70;;;10.50;;
4353;SDS011;11018;51.258;6.806;2023-04-06T00:13:27;16.00;;;10.20;;
4353;SDS011;11018;51.258;6.806;2023-04-06T00:15:53;20.05;;;11.05;;
4353;SDS011;11018;51.258;6.806;2023-04-06T00:18:18;17.73;;;10.82;;
4353;SDS011;11018;51.258;6.806;2023-04-06T00:20:44;21.93;;;12.37;;
4353;SDS011;11018;51.258;6.806;2023-04-06T00:23:10;20.47;;;12.03;;
4353;SDS011;11018;51.258;6.806;2023-04-06T00:25:35;24.13;;;13.27;;
4353;SDS011;11018;51.258;6.806;2023-04-06T00:28:01;21.70;;;13.80;;
4353;SDS011;11018;51.258;6.806;2023-04-06T00:30:26;22.60;;;13.20;;
4353;SDS011;11018;51.258;6.806;2023-04-06T00:32:52;22.60;;;13.43;;
4353;SDS011;11018;51.258;6.806;2023-04-06T00:35:17;23.98;;;13.70;;
4353;SDS011;11018;51.258;6.806;2023-04-06T00:37:45;23.17;;;12.80;;
4353;SDS011;11018;51.258;6.806;2023-04-06T00:40:11;25.75;;;14.20;;
4353;SDS011;11018;51.258;6.806;2023-04-06T00:42:37;25.85;;;13.30;;
4353;SDS011;11018;51.258;6.806;2023-04-06T00:45:03;26.60;;;13.63;;
4353;SDS011;11018;51.258;6.806;2023-04-06T00:47:29;24.53;;;14.00;;
4353;SDS011;11018;51.258;6.806;2023-04-06T00:49:54;22.80;;;14.02;;
4353;SDS011;11018;51.258;6.806;2023-04-06T00:52:20;25.75;;;13.38;;
4353;SDS011;11018;51.258;6.806;2023-04-06T00:54:46;21.73;;;12.90;;
4353;SDS011;11018;51.258;6.806;2023-04-06T00:57:12;22.45;;;13.73;;
4353;SDS011;11018;51.258;6.806;2023-04-06T00:59:38;25.23;;;13.05;;
4353;SDS011;11018;51.258;6.806;2023-04-06T01:02:04;22.33;;;13.50;;
4353;SDS011;11018;51.258;6.806;2023-04-06T01:04:31;24.85;;;13.85;;
4353;SDS011;11018;51.258;6.806;2023-04-06T01:06:57;25.63;;;13.68;;
4353;SDS011;11018;51.258;6.806;2023-04-06T01:09:22;21.53;;;13.77;;
4353;SDS011;11018;51.258;6.806;2023-04-06T01:11:48;23.87;;;14.23;;
4353;SDS011;11018;51.258;6.806;2023-04-06T01:14:14;21.10;;;13.20;;
4353;SDS011;11018;51.258;6.806;2023-04-06T01:16:40;22.25;;;13.52;;
4353;SDS011;11018;51.258;6.806;2023-04-06T01:19:07;22.50;;;14.40;;
4353;SDS011;11018;51.258;6.806;2023-04-06T01:21:37;24.88;;;14.40;;
4353;SDS011;11018;51.258;6.806;2023-04-06T01:24:03;23.10;;;14.00;;
4353;SDS011;11018;51.258;6.806;2023-04-06T01:26:30;20.50;;;12.77;;
4353;SDS011;11018;51.258;6.806;2023-04-06T01:28:56;25.77;;;14.43;;
4353;SDS011;11018;51.258;6.806;2023-04-06T01:31:21;21.40;;;13.82;;
4353;SDS011;11018;51.258;6.806;2023-04-06T01:33:47;23.10;;;14.17;;
4353;SDS011;11018;51.258;6.806;2023-04-06T01:36:13;21.30;;;13.60;;
4353;SDS011;11018;51.258;6.806;2023-04-06T01:38:39;21.52;;;13.40;;
4353;SDS011;11018;51.258;6.806;2023-04-06T01:41:06;25.65;;;14.73;;
4353;SDS011;11018;51.258;6.806;2023-04-06T01:43:32;22.60;;;13.73;;
4353;SDS011;11018;51.258;6.806;2023-04-06T01:45:57;22.93;;;14.47;;
4353;SDS011;11018;51.258;6.806;2023-04-06T01:48:23;21.43;;;13.97;;
4353;SDS011;11018;51.258;6.806;2023-04-06T01:50:48;23.70;;;14.20;;
4353;SDS011;11018;51.258;6.806;2023-04-06T01:53:14;24.70;;;13.93;;
4353;SDS011;11018;51.258;6.806;2023-04-06T01:55:40;22.80;;;13.35;;
4353;SDS011;11018;51.258;6.806;2023-04-06T01:58:06;23.13;;;14.40;;
4353;SDS011;11018;51.258;6.806;2023-04-06T02:00:31;28.47;;;14.60;;
4353;SDS011;11018;51.258;6.806;2023-04-06T02:02:57;24.27;;;14.77;;
4353;SDS011;11018;51.258;6.806;2023-04-06T02:05:22;25.30;;;15.07;;
4353;SDS011;11018;51.258;6.806;2023-04-06T02:07:48;22.33;;;13.90;;
4353;SDS011;11018;51.258;6.806;2023-04-06T02:10:14;24.67;;;15.10;;
4353;SDS011;11018;51.258;6.806;2023-04-06T02:12:40;25.23;;;14.32;;
4353;SDS011;11018;51.258;6.806;2023-04-06T02:15:06;25.65;;;14.10;;
4353;SDS011;11018;51.258;6.806;2023-04-06T02:17:32;24.90;;;15.30;;
4353;SDS011;11018;51.258;6.806;2023-04-06T02:19:57;26.27;;;14.70;;
4353;SDS011;11018;51.258;6.806;2023-04-06T02:22:23;22.27;;;14.88;;
4353;SDS011;11018;51.258;6.806;2023-04-06T02:24:48;25.83;;;14.52;;
4353;SDS011;11018;51.258;6.806;2023-04-06T02:27:14;24.25;;;14.32;;
4353;SDS011;11018;51.258;6.806;2023-04-06T02:29:40;27.20;;;14.80;;
4353;SDS011;11018;51.258;6.806;2023-04-06T02:32:05;23.73;;;14.50;;
4353;SDS011;11018;51.258;6.806;2023-04-06T02:34:31;24.70;;;14.43;;
4353;SDS011;11018;51.258;6.806;2023-04-06T02:36:57;25.17;;;15.30;;
4353;SDS011;11018;51.258;6.806;2023-04-06T02:39:22;22.70;;;14.40;;
4353;SDS011;11018;51.258;6.806;2023-04-06T02:41:48;24.97;;;13.83;;
4353;SDS011;11018;51.258;6.806;2023-04-06T02:44:14;21.90;;;14.83;;
4353;SDS011;11018;51.258;6.806;2023-04-06T02:46:39;25.30;;;15.40;;
4353;SDS011;11018;51.258;6.806;2023-04-06T02:49:05;23.05;;;14.50;;
4353;SDS011;11018;51.258;6.806;2023-04-06T02:51:30;27.25;;;14.90;;
4353;SDS011;11018;51.258;6.806;2023-04-06T02:53:56;25.23;;;14.10;;
4353;SDS011;11018;51.258;6.806;2023-04-06T02:56:22;23.87;;;14.50;;
4353;SDS011;11018;51.258;6.806;2023-04-06T02:58:47;23.10;;;13.93;;
4353;SDS011;11018;51.258;6.806;2023-04-06T03:01:13;23.20;;;13.83;;
4353;SDS011;11018;51.258;6.806;2023-04-06T03:03:38;22.10;;;13.13;;
4353;SDS011;11018;51.258;6.806;2023-04-06T03:06:04;23.00;;;14.30;;
4353;SDS011;11018;51.258;6.806;2023-04-06T03:08:29;22.05;;;13.60;;
4353;SDS011;11018;51.258;6.806;2023-04-06T03:10:55;23.20;;;13.88;;
4353;SDS011;11018;51.258;6.806;2023-04-06T03:13:21;21.17;;;12.07;;
4353;SDS011;11018;51.258;6.806;2023-04-06T03:15:46;20.73;;;13.33;;
4353;SDS011;11018;51.258;6.806;2023-04-06T03:18:12;21.20;;;12.87;;
4353;SDS011;11018;51.258;6.806;2023-04-06T03:20:37;19.00;;;12.47;;
4353;SDS011;11018;51.258;6.806;2023-04-06T03:23:03;22.30;;;13.13;;
4353;SDS011;11018;51.258;6.806;2023-04-06T03:25:29;19.20;;;13.10;;
4353;SDS011;11018;51.258;6.806;2023-04-06T03:27:58;22.23;;;13.13;;
4353;SDS011;11018;51.258;6.806;2023-04-06T03:30:23;20.13;;;12.00;;
4353;SDS011;11018;51.258;6.806;2023-04-06T03:32:49;18.80;;;12.00;;
4353;SDS011;11018;51.258;6.806;2023-04-06T03:35:15;21.15;;;11.60;;
4353;SDS011;11018;51.258;6.806;2023-04-06T03:37:40;23.50;;;12.23;;
4353;SDS011;11018;51.258;6.806;2023-04-06T03:40:06;21.80;;;11.77;;
4353;SDS011;11018;51.258;6.806;2023-04-06T03:42:32;19.92;;;12.02;;
4353;SDS011;11018;51.258;6.806;2023-04-06T03:44:58;17.98;;;12.30;;
4353;SDS011;11018;51.258;6.806;2023-04-06T03:47:23;23.70;;;13.07;;
4353;SDS011;11018;51.258;6.806;2023-04-06T03:49:49;17.73;;;12.05;;
4353;SDS011;11018;51.258;6.806;2023-04-06T03:52:15;19.57;;;12.33;;
4353;SDS011;11018;51.258;6.806;2023-04-06T03:54:41;22.47;;;11.87;;
4353;SDS011;11018;51.258;6.806;2023-04-06T03:57:06;28.60;;;12.10;;
4353;SDS011;11018;51.258;6.806;2023-04-06T03:59:32;19.93;;;12.10;;
4353;SDS011;11018;51.258;6.806;2023-04-06T04:01:57;20.88;;;12.00;;
4353;SDS011;11018;51.258;6.806;2023-04-06T04:04:23;22.20;;;12.50;;
4353;SDS011;11018;51.258;6.806;2023-04-06T04:06:48;21.98;;;12.27;;
4353;SDS011;11018;51.258;6.806;2023-04-06T04:09:14;18.80;;;13.00;;
4353;SDS011;11018;51.258;6.806;2023-04-06T04:11:40;18.23;;;12.40;;
4353;SDS011;11018;51.258;6.806;2023-04-06T04:14:05;19.73;;;12.53;;
4353;SDS011;11018;51.258;6.806;2023-04-06T04:16:31;18.77;;;12.20;;
4353;SDS011;11018;51.258;6.806;2023-04-06T04:18:56;19.67;;;12.03;;
4353;SDS011;11018;51.258;6.806;2023-04-06T04:21:23;20.45;;;12.18;;
4353;SDS011;11018;51.258;6.806;2023-04-06T04:23:50;20.08;;;12.40;;
4353;SDS011;11018;51.258;6.806;2023-04-06T04:26:17;19.73;;;11.97;;
4353;SDS011;11018;51.258;6.806;2023-04-06T04:28:43;21.58;;;12.50;;
4353;SDS011;11018;51.258;6.806;2023-04-06T04:31:08;19.55;;;11.35;;
4353;SDS011;11018;51.258;6.806;2023-04-06T04:33:34;21.67;;;12.38;;
4353;SDS011;11018;51.258;6.806;2023-04-06T04:36:00;21.87;;;12.53;;
4353;SDS011;11018;51.258;6.806;2023-04-06T04:38:25;21.63;;;12.33;;
4353;SDS011;11018;51.258;6.806;2023-04-06T04:40:51;21.40;;;11.27;;
4353;SDS011;11018;51.258;6.806;2023-04-06T04:43:16;18.53;;;11.70;;
4353;SDS011;11018;51.258;6.806;2023-04-06T04:45:42;20.20;;;11.70;;
4353;SDS011;11018;51.258;6.806;2023-04-06T04:48:07;19.90;;;12.40;;
4353;SDS011;11018;51.258;6.806;2023-04-06T04:50:33;22.23;;;12.88;;
4353;SDS011;11018;51.258;6.806;2023-04-06T04:52:59;17.37;;;11.67;;
4353;SDS011;11018;51.258;6.806;2023-04-06T04:55:24;19.33;;;11.73;;
4353;SDS011;11018;51.258;6.806;2023-04-06T04:57:50;17.13;;;10.90;;
4353;SDS011;11018;51.258;6.806;2023-04-06T05:00:16;17.73;;;11.77;;
4353;SDS011;11018;51.258;6.806;2023-04-06T05:02:42;19.88;;;11.77;;
4353;SDS011;11018;51.258;6.806;2023-04-06T05:05:07;18.97;;;11.70;;
4353;SDS011;11018;51.258;6.806;2023-04-06T05:07:33;21.52;;;11.50;;
4353;SDS011;11018;51.258;6.806;2023-04-06T05:09:59;17.08;;;11.50;;
4353;SDS011;11018;51.258;6.806;2023-04-06T05:12:25;20.23;;;10.43;;
4353;SDS011;11018;51.258;6.806;2023-04-06T05:14:52;16.23;;;11.10;;
4353;SDS011;11018;51.258;6.806;2023-04-06T05:17:18;17.50;;;11.30;;
4353;SDS011;11018;51.258;6.806;2023-04-06T05:19:44;18.20;;;11.50;;
4353;SDS011;11018;51.258;6.806;2023-04-06T05:22:10;17.38;;;10.70;;
4353;SDS011;11018;51.258;6.806;2023-04-06T05:24:36;17.38;;;11.80;;
4353;SDS011;11018;51.258;6.806;2023-04-06T05:27:03;17.95;;;11.45;;
4353;SDS011;11018;51.258;6.806;2023-04-06T05:29:29;18.40;;;11.43;;
4353;SDS011;11018;51.258;6.806;2023-04-06T05:31:55;23.13;;;11.52;;
4353;SDS011;11018;51.258;6.806;2023-04-06T05:34:21;20.08;;;11.90;;
4353;SDS011;11018;51.258;6.806;2023-04-06T05:36:47;19.50;;;11.63;;
4353;SDS011;11018;51.258;6.806;2023-04-06T05:39:12;21.80;;;11.40;;
4353;SDS011;11018;51.258;6.806;2023-04-06T05:41:38;17.43;;;11.00;;
4353;SDS011;11018;51.258;6.806;2023-04-06T05:44:03;17.65;;;10.90;;
4353;SDS011;11018;51.258;6.806;2023-04-06T05:46:29;14.85;;;10.60;;
4353;SDS011;11018;51.258;6.806;2023-04-06T05:48:55;16.60;;;10.57;;
4353;SDS011;11018;51.258;6.806;2023-04-06T05:51:21;16.77;;;11.02;;
4353;SDS011;11018;51.258;6.806;2023-04-06T05:53:46;16.50;;;10.37;;
4353;SDS011;11018;51.258;6.806;2023-04-06T05:56:12;18.00;;;10.67;;
4353;SDS011;11018;51.258;6.806;2023-04-06T05:58:37;18.77;;;10.70;;
4353;SDS011;11018;51.258;6.806;2023-04-06T06:01:03;21.93;;;11.40;;
4353;SDS011;11018;51.258;6.806;2023-04-06T06:03:29;16.80;;;10.40;;
4353;SDS011;11018;51.258;6.806;2023-04-06T06:05:59;15.60;;;10.18;;
4353;SDS011;11018;51.258;6.806;2023-04-06T06:08:25;17.05;;;11.40;;
4353;SDS011;11018;51.258;6.806;2023-04-06T06:10:51;19.35;;;10.50;;
4353;SDS011;11018;51.258;6.806;2023-04-06T06:13:17;18.73;;;10.70;;
4353;SDS011;11018;51.258;6.806;2023-04-06T06:15:42;18.35;;;10.35;;
4353;SDS011;11018;51.258;6.806;2023-04-06T06:18:08;18.88;;;10.52;;
4353;SDS011;11018;51.258;6.806;2023-04-06T06:20:33;20.88;;;11.45;;
4353;SDS011;11018;51.258;6.806;2023-04-06T06:22:59;20.42;;;10.70;;
4353;SDS011;11018;51.258;6.806;2023-04-06T06:25:24;18.55;;;10.60;;
4353;SDS011;11018;51.258;6.806;2023-04-06T06:27:51;20.08;;;10.55;;
4353;SDS011;11018;51.258;6.806;2023-04-06T06:30:16;17.10;;;10.90;;
4353;SDS011;11018;51.258;6.806;2023-04-06T06:32:42;20.15;;;10.40;;
4353;SDS011;11018;51.258;6.806;2023-04-06T06:35:07;19.35;;;10.52;;
4353;SDS011;11018;51.258;6.806;2023-04-06T06:37:33;16.05;;;10.15;;
4353;SDS011;11018;51.258;6.806;2023-04-06T06:39:59;17.37;;;10.10;;
4353;SDS011;11018;51.258;6.806;2023-04-06T06:42:24;19.60;;;11.20;;
4353;SDS011;11018;51.258;6.806;2023-04-06T06:44:51;17.40;;;10.93;;
4353;SDS011;11018;51.258;6.806;2023-04-06T06:47:16;34.90;;;13.63;;
4353;SDS011;11018;51.258;6.806;2023-04-06T06:49:42;16.15;;;10.48;;
4353;SDS011;11018;51.258;6.806;2023-04-06T06:52:07;15.10;;;10.35;;
4353;SDS011;11018;51.258;6.806;2023-04-06T06:54:33;24.25;;;11.13;;
4353;SDS011;11018;51.258;6.806;2023-04-06T06:56:59;14.82;;;10.75;;
4353;SDS011;11018;51.258;6.806;2023-04-06T06:59:25;17.77;;;11.18;;
4353;SDS011;11018;51.258;6.806;2023-04-06T07:01:51;15.60;;;10.45;;
4353;SDS011;11018;51.258;6.806;2023-04-06T07:04:16;19.50;;;11.17;;
4353;SDS011;11018;51.258;6.806;2023-04-06T07:06:42;17.30;;;10.77;;
4353;SDS011;11018;51.258;6.806;2023-04-06T07:09:07;18.50;;;10.87;;
4353;SDS011;11018;51.258;6.806;2023-04-06T07:11:33;15.60;;;10.37;;
4353;SDS011;11018;51.258;6.806;2023-04-06T07:13:59;17.67;;;11.10;;
4353;SDS011;11018;51.258;6.806;2023-04-06T07:16:24;17.43;;;10.93;;
4353;SDS011;11018;51.258;6.806;2023-04-06T07:18:50;16.63;;;10.73;;
4353;SDS011;11018;51.258;6.806;2023-04-06T07:21:15;15.93;;;10.53;;
4353;SDS011;11018;51.258;6.806;2023-04-06T07:23:41;18.83;;;10.60;;
4353;SDS011;11018;51.258;6.806;2023-04-06T07:26:07;18.20;;;10.30;;
4353;SDS011;11018;51.258;6.806;2023-04-06T07:28:32;17.90;;;10.90;;
4353;SDS011;11018;51.258;6.806;2023-04-06T07:30:58;19.33;;;10.87;;
4353;SDS011;11018;51.258;6.806;2023-04-06T07:33:24;21.30;;;10.40;;
4353;SDS011;11018;51.258;6.806;2023-04-06T07:35:49;18.77;;;11.88;;
4353;SDS011;11018;51.258;6.806;2023-04-06T07:38:16;20.33;;;11.83;;
4353;SDS011;11018;51.258;6.806;2023-04-06T07:40:42;20.20;;;11.40;;
4353;SDS011;11018;51.258;6.806;2023-04-06T07:43:07;20.70;;;11.77;;
4353;SDS011;11018;51.258;6.806;2023-04-06T07:45:33;18.47;;;11.07;;
4353;SDS011;11018;51.258;6.806;2023-04-06T07:47:58;19.70;;;11.43;;
4353;SDS011;11018;51.258;6.806;2023-04-06T07:50:24;20.40;;;11.70;;
4353;SDS011;11018;51.258;6.806;2023-04-06T07:52:50;19.77;;;11.57;;
4353;SDS011;11018;51.258;6.806;2023-04-06T07:55:15;16.90;;;10.77;;
4353;SDS011;11018;51.258;6.806;2023-04-06T07:57:41;17.13;;;10.87;;
4353;SDS011;11018;51.258;6.806;2023-04-06T08:00:06;16.67;;;11.50;;
4353;SDS011;11018;51.258;6.806;2023-04-06T08:02:34;20.80;;;11.38;;
4353;SDS011;11018;51.258;6.806;2023-04-06T08:05:00;20.47;;;11.30;;
4353;SDS011;11018;51.258;6.806;2023-04-06T08:07:25;20.80;;;12.00;;
4353;SDS011;11018;51.258;6.806;2023-04-06T08:09:51;20.02;;;11.73;;
4353;SDS011;11018;51.258;6.806;2023-04-06T08:12:17;17.75;;;11.32;;
4353;SDS011;11018;51.258;6.806;2023-04-06T08:14:43;20.57;;;11.80;;
4353;SDS011;11018;51.258;6.806;2023-04-06T08:17:08;19.10;;;12.80;;
4353;SDS011;11018;51.258;6.806;2023-04-06T08:19:34;19.20;;;11.30;;
4353;SDS011;11018;51.258;6.806;2023-04-06T08:22:00;22.43;;;12.20;;
4353;SDS011;11018;51.258;6.806;2023-04-06T08:24:25;20.00;;;11.70;;
4353;SDS011;11018;51.258;6.806;2023-04-06T08:26:51;20.40;;;11.40;;
4353;SDS011;11018;51.258;6.806;2023-04-06T08:29:17;20.00;;;12.00;;
4353;SDS011;11018;51.258;6.806;2023-04-06T08:31:43;18.30;;;11.40;;
4353;SDS011;11018;51.258;6.806;2023-04-06T08:34:09;20.97;;;11.87;;
4353;SDS011;11018;51.258;6.806;2023-04-06T08:36:35;20.00;;;12.55;;
4353;SDS011;11018;51.258;6.806;2023-04-06T08:39:00;18.73;;;12.03;;
4353;SDS011;11018;51.258;6.806;2023-04-06T08:41:27;24.20;;;13.13;;
4353;SDS011;11018;51.258;6.806;2023-04-06T08:43:56;23.75;;;12.75;;
4353;SDS011;11018;51.258;6.806;2023-04-06T08:46:24;23.00;;;12.45;;
4353;SDS011;11018;51.258;6.806;2023-04-06T08:48:59;21.77;;;12.63;;
4353;SDS011;11018;51.258;6.806;2023-04-06T08:51:26;20.67;;;12.57;;
4353;SDS011;11018;51.258;6.806;2023-04-06T08:53:53;21.70;;;13.60;;
4353;SDS011;11018;51.258;6.806;2023-04-06T08:56:20;21.05;;;13.05;;
4353;SDS011;11018;51.258;6.806;2023-04-06T08:58:47;24.45;;;14.00;;
4353;SDS011;11018;51.258;6.806;2023-04-06T09:01:13;26.15;;;14.27;;
4353;SDS011;11018;51.258;6.806;2023-04-06T09:03:42;21.50;;;13.77;;
4353;SDS011;11018;51.258;6.806;2023-04-06T09:06:09;22.05;;;13.85;;
4353;SDS011;11018;51.258;6.806;2023-04-06T09:08:35;27.65;;;14.30;;
4353;SDS011;11018;51.258;6.806;2023-04-06T09:11:03;23.35;;;13.73;;
4353;SDS011;11018;51.258;6.806;2023-04-06T09:13:29;24.02;;;15.20;;
4353;SDS011;11018;51.258;6.806;2023-04-06T09:16:02;24.05;;;14.85;;
4353;SDS011;11018;51.258;6.806;2023-04-06T09:18:32;24.95;;;15.10;;
4353;SDS011;11018;51.258;6.806;2023-04-06T09:23:25;26.35;;;16.00;;
4353;SDS011;11018;51.258;6.806;2023-04-06T09:25:51;32.97;;;17.08;;
4353;SDS011;11018;51.258;6.806;2023-04-06T09:28:16;27.77;;;17.05;;
4353;SDS011;11018;51.258;6.806;2023-04-06T09:30:48;33.15;;;17.25;;
4353;SDS011;11018;51.258;6.806;2023-04-06T09:33:21;30.42;;;17.63;;
4353;SDS011;11018;51.258;6.806;2023-04-06T09:35:51;29.17;;;17.42;;
4353;SDS011;11018;51.258;6.806;2023-04-06T09:38:16;32.60;;;17.17;;
4353;SDS011;11018;51.258;6.806;2023-04-06T09:40:51;32.87;;;16.67;;
4353;SDS011;11018;51.258;6.806;2023-04-06T09:43:24;33.70;;;17.30;;
4353;SDS011;11018;51.258;6.806;2023-04-06T09:45:52;32.35;;;17.70;;
4353;SDS011;11018;51.258;6.806;2023-04-06T09:48:19;29.75;;;17.77;;
4353;SDS011;11018;51.258;6.806;2023-04-06T09:50:47;28.95;;;16.63;;
4353;SDS011;11018;51.258;6.806;2023-04-06T09:53:15;29.98;;;17.58;;
4353;SDS011;11018;51.258;6.806;2023-04-06T09:55:44;32.67;;;17.00;;
4353;SDS011;11018;51.258;6.806;2023-04-06T09:58:16;32.63;;;15.77;;
4353;SDS011;11018;51.258;6.806;2023-04-06T10:00:53;31.77;;;17.13;;
4353;SDS011;11018;51.258;6.806;2023-04-06T10:03:21;31.45;;;17.35;;
4353;SDS011;11018;51.258;6.806;2023-04-06T10:06:13;29.90;;;16.67;;
4353;SDS011;11018;51.258;6.806;2023-04-06T10:08:44;32.55;;;17.30;;
4353;SDS011;11018;51.258;6.806;2023-04-06T10:11:12;32.33;;;17.00;;
4353;SDS011;11018;51.258;6.806;2023-04-06T10:13:38;32.90;;;18.10;;
4353;SDS011;11018;51.258;6.806;2023-04-06T10:16:04;31.10;;;18.17;;
4353;SDS011;11018;51.258;6.806;2023-04-06T10:18:31;33.13;;;17.90;;
4353;SDS011;11018;51.258;6.806;2023-04-06T10:20:57;31.77;;;17.03;;
4353;SDS011;11018;51.258;6.806;2023-04-06T10:25:59;33.22;;;17.75;;
4353;SDS011;11018;51.258;6.806;2023-04-06T10:28:30;32.08;;;18.23;;
4353;SDS011;11018;51.258;6.806;2023-04-06T10:30:57;34.55;;;19.35;;
4353;SDS011;11018;51.258;6.806;2023-04-06T10:33:24;34.33;;;18.60;;
4353;SDS011;11018;51.258;6.806;2023-04-06T10:35:50;34.08;;;18.90;;
4353;SDS011;11018;51.258;6.806;2023-04-06T10:38:16;35.20;;;18.47;;
4353;SDS011;11018;51.258;6.806;2023-04-06T10:40:45;31.08;;;18.20;;
4353;SDS011;11018;51.258;6.806;2023-04-06T10:43:21;33.78;;;18.83;;
4353;SDS011;11018;51.258;6.806;2023-04-06T10:45:56;34.63;;;19.10;;
4353;SDS011;11018;51.258;6.806;2023-04-06T10:48:24;38.28;;;21.00;;
4353;SDS011;11018;51.258;6.806;2023-04-06T10:50:51;33.83;;;19.45;;
4353;SDS011;11018;51.258;6.806;2023-04-06T10:53:24;30.52;;;18.90;;
4353;SDS011;11018;51.258;6.806;2023-04-06T10:55:51;31.08;;;18.80;;
4353;SDS011;11018;51.258;6.806;2023-04-06T10:58:18;30.30;;;18.27;;
4353;SDS011;11018;51.258;6.806;2023-04-06T11:00:47;30.25;;;18.92;;
4353;SDS011;11018;51.258;6.806;2023-04-06T11:03:14;38.30;;;20.20;;
4353;SDS011;11018;51.258;6.806;2023-04-06T11:05:43;32.38;;;18.60;;
4353;SDS011;11018;51.258;6.806;2023-04-06T11:08:10;35.25;;;19.63;;
4353;SDS011;11018;51.258;6.806;2023-04-06T11:10:46;31.07;;;18.80;;
4353;SDS011;11018;51.258;6.806;2023-04-06T11:13:12;32.53;;;18.67;;
4353;SDS011;11018;51.258;6.806;2023-04-06T11:15:37;37.50;;;18.67;;
4353;SDS011;11018;51.258;6.806;2023-04-06T11:18:03;32.70;;;18.07;;
4353;SDS011;11018;51.258;6.806;2023-04-06T11:20:30;30.48;;;18.27;;
4353;SDS011;11018;51.258;6.806;2023-04-06T11:22:55;31.60;;;19.30;;
4353;SDS011;11018;51.258;6.806;2023-04-06T11:25:21;36.80;;;18.63;;
4353;SDS011;11018;51.258;6.806;2023-04-06T11:27:46;34.07;;;19.10;;
4353;SDS011;11018;51.258;6.806;2023-04-06T11:30:13;33.53;;;18.98;;
4353;SDS011;11018;51.258;6.806;2023-04-06T11:32:43;36.83;;;18.30;;
4353;SDS011;11018;51.258;6.806;2023-04-06T11:35:22;35.03;;;19.60;;
4353;SDS011;11018;51.258;6.806;2023-04-06T11:37:51;34.67;;;19.20;;
4353;SDS011;11018;51.258;6.806;2023-04-06T11:40:20;32.20;;;18.30;;
4353;SDS011;11018;51.258;6.806;2023-04-06T11:42:53;32.53;;;18.77;;
4353;SDS011;11018;51.258;6.806;2023-04-06T11:45:20;36.83;;;19.33;;
4353;SDS011;11018;51.258;6.806;2023-04-06T11:47:54;34.42;;;18.80;;
4353;SDS011;11018;51.258;6.806;2023-04-06T11:50:21;31.47;;;19.00;;
4353;SDS011;11018;51.258;6.806;2023-04-06T11:52:47;34.87;;;19.07;;
4353;SDS011;11018;51.258;6.806;2023-04-06T11:55:23;31.40;;;18.52;;
4353;SDS011;11018;51.258;6.806;2023-04-06T11:57:49;30.63;;;18.67;;
4353;SDS011;11018;51.258;6.806;2023-04-06T12:00:16;36.78;;;19.35;;
4353;SDS011;11018;51.258;6.806;2023-04-06T12:02:45;34.55;;;18.63;;
4353;SDS011;11018;51.258;6.806;2023-04-06T12:05:11;30.70;;;18.35;;
4353;SDS011;11018;51.258;6.806;2023-04-06T12:07:37;35.92;;;18.05;;
4353;SDS011;11018;51.258;6.806;2023-04-06T12:10:03;34.80;;;17.90;;
4353;SDS011;11018;51.258;6.806;2023-04-06T12:12:29;30.80;;;17.67;;
4353;SDS011;11018;51.258;6.806;2023-04-06T12:14:55;32.47;;;17.98;;
4353;SDS011;11018;51.258;6.806;2023-04-06T12:17:21;28.65;;;18.20;;
4353;SDS011;11018;51.258;6.806;2023-04-06T12:19:46;30.87;;;17.80;;
4353;SDS011;11018;51.258;6.806;2023-04-06T12:22:12;34.08;;;17.38;;
4353;SDS011;11018;51.258;6.806;2023-04-06T12:24:39;31.52;;;17.27;;
4353;SDS011;11018;51.258;6.806;2023-04-06T12:27:04;31.70;;;16.77;;
4353;SDS011;11018;51.258;6.806;2023-04-06T12:29:30;32.67;;;17.60;;
4353;SDS011;11018;51.258;6.806;2023-04-06T12:31:56;34.37;;;18.37;;
4353;SDS011;11018;51.258;6.806;2023-04-06T12:34:21;23.75;;;14.40;;
4353;SDS011;11018;51.258;6.806;2023-04-06T12:36:47;25.20;;;15.50;;
4353;SDS011;11018;51.258;6.806;2023-04-06T12:39:12;27.70;;;14.83;;
4353;SDS011;11018;51.258;6.806;2023-04-06T12:41:38;24.37;;;14.80;;
4353;SDS011;11018;51.258;6.806;2023-04-06T12:44:06;26.45;;;15.70;;
4353;SDS011;11018;51.258;6.806;2023-04-06T12:46:32;27.37;;;16.23;;
4353;SDS011;11018;51.258;6.806;2023-04-06T12:48:58;25.97;;;16.00;;
4353;SDS011;11018;51.258;6.806;2023-04-06T12:51:24;30.10;;;16.73;;
4353;SDS011;11018;51.258;6.806;2023-04-06T12:53:52;30.15;;;15.55;;
4353;SDS011;11018;51.258;6.806;2023-04-06T12:56:18;25.63;;;15.27;;
4353;SDS011;11018;51.258;6.806;2023-04-06T12:58:44;25.10;;;13.82;;
4353;SDS011;11018;51.258;6.806;2023-04-06T13:01:10;21.23;;;12.93;;
4353;SDS011;11018;51.258;6.806;2023-04-06T13:03:39;21.38;;;12.60;;
4353;SDS011;11018;51.258;6.806;2023-04-06T13:06:06;28.40;;;13.85;;
4353;SDS011;11018;51.258;6.806;2023-04-06T13:08:33;23.17;;;13.30;;
4353;SDS011;11018;51.258;6.806;2023-04-06T13:10:59;20.90;;;12.90;;
4353;SDS011;11018;51.258;6.806;2023-04-06T13:13:25;21.50;;;13.20;;
4353;SDS011;11018;51.258;6.806;2023-04-06T13:15:52;22.85;;;13.80;;
4353;SDS011;11018;51.258;6.806;2023-04-06T13:18:20;24.58;;;12.90;;
4353;SDS011;11018;51.258;6.806;2023-04-06T13:20:46;23.17;;;13.77;;
4353;SDS011;11018;51.258;6.806;2023-04-06T13:23:12;24.25;;;14.60;;
4353;SDS011;11018;51.258;6.806;2023-04-06T13:25:38;26.20;;;14.17;;
4353;SDS011;11018;51.258;6.806;2023-04-06T13:28:03;24.40;;;13.63;;
4353;SDS011;11018;51.258;6.806;2023-04-06T13:30:29;19.87;;;12.50;;
4353;SDS011;11018;51.258;6.806;2023-04-06T13:32:55;26.40;;;13.68;;
4353;SDS011;11018;51.258;6.806;2023-04-06T13:35:20;25.52;;;13.98;;
4353;SDS011;11018;51.258;6.806;2023-04-06T13:37:46;27.50;;;13.83;;
4353;SDS011;11018;51.258;6.806;2023-04-06T13:40:13;18.17;;;13.33;;
4353;SDS011;11018;51.258;6.806;2023-04-06T13:42:38;20.00;;;13.47;;
4353;SDS011;11018;51.258;6.806;2023-04-06T13:45:05;21.95;;;12.43;;
4353;SDS011;11018;51.258;6.806;2023-04-06T13:47:32;18.25;;;12.02;;
4353;SDS011;11018;51.258;6.806;2023-04-06T13:49:57;18.67;;;11.90;;
4353;SDS011;11018;51.258;6.806;2023-04-06T13:52:23;15.43;;;10.87;;
4353;SDS011;11018;51.258;6.806;2023-04-06T13:54:49;16.93;;;10.57;;
4353;SDS011;11018;51.258;6.806;2023-04-06T13:57:15;19.75;;;11.43;;
4353;SDS011;11018;51.258;6.806;2023-04-06T13:59:41;18.40;;;10.98;;
4353;SDS011;11018;51.258;6.806;2023-04-06T14:02:07;15.32;;;10.20;;
4353;SDS011;11018;51.258;6.806;2023-04-06T14:04:34;17.33;;;10.48;;
4353;SDS011;11018;51.258;6.806;2023-04-06T14:07:00;13.00;;;10.10;;
4353;SDS011;11018;51.258;6.806;2023-04-06T14:09:27;17.10;;;10.88;;
4353;SDS011;11018;51.258;6.806;2023-04-06T14:11:53;16.50;;;10.73;;
4353;SDS011;11018;51.258;6.806;2023-04-06T14:14:19;20.45;;;11.55;;
4353;SDS011;11018;51.258;6.806;2023-04-06T14:16:46;15.60;;;10.40;;
4353;SDS011;11018;51.258;6.806;2023-04-06T14:19:12;20.43;;;11.27;;
4353;SDS011;11018;51.258;6.806;2023-04-06T14:21:40;16.00;;;10.80;;
4353;SDS011;11018;51.258;6.806;2023-04-06T14:24:09;16.77;;;11.10;;
4353;SDS011;11018;51.258;6.806;2023-04-06T14:26:36;19.02;;;11.75;;
4353;SDS011;11018;51.258;6.806;2023-04-06T14:29:05;17.17;;;11.18;;
4353;SDS011;11018;51.258;6.806;2023-04-06T14:31:31;17.35;;;11.63;;
4353;SDS011;11018;51.258;6.806;2023-04-06T14:33:57;25.48;;;12.75;;
4353;SDS011;11018;51.258;6.806;2023-04-06T14:36:23;18.03;;;11.17;;